sensor_id;sensor_type;location;lat;lon;timestamp;temperature;humidity
12384;DHT22;6256;63.808;20.336;2023-05-18T00:02:05;5.50;99.90
12384;DHT22;6256;63.808;20.336;2023-05-18T00:04:33;5.40;99.90
12384;DHT22;6256;63.808;20.336;2023-05-18T00:07:00;5.50;99.90
12384;DHT22;6256;63.808;20.336;2023-05-18T00:09:29;5.50;99.90
12384;DHT22;6256;63.808;20.336;2023-05-18T00:11:55;5.50;99.90
12384;DHT22;6256;63.808;20.336;2023-05-18T00:14:21;5.40;99.90
12384;DHT22;6256;63.808;20.336;2023-05-18T00:16:47;5.50;99.90
12384;DHT22;6256;63.808;20.336;2023-05-18T00:19:14;5.40;99.90
12384;DHT22;6256;63.808;20.336;2023-05-18T00:21:44;5.40;99.90
12384;DHT22;6256;63.808;20.336;2023-05-18T00:24:14;5.40;99.90
12384;DHT22;6256;63.808;20.336;2023-05-18T00:26:45;5.40;99.90
12384;DHT22;6256;63.808;20.336;2023-05-18T00:29:11;5.50;99.90
12384;DHT22;6256;63.808;20.336;2023-05-18T00:31:37;5.50;99.90
12384;DHT22;6256;63.808;20.336;2023-05-18T00:34:04;5.60;99.90
12384;DHT22;6256;63.808;20.336;2023-05-18T00:36:30;5.60;99.90
12384;DHT22;6256;63.808;20.336;2023-05-18T00:38:57;5.60;99.90
12384;DHT22;6256;63.808;20.336;2023-05-18T00:41:24;5.50;99.90
12384;DHT22;6256;63.808;20.336;2023-05-18T00:43:54;5.60;99.90
12384;DHT22;6256;63.808;20.336;2023-05-18T00:46:20;5.60;99.90
12384;DHT22;6256;63.808;20.336;2023-05-18T00:48:48;5.60;99.90
12384;DHT22;6256;63.808;20.336;2023-05-18T00:51:14;5.60;99.90
12384;DHT22;6256;63.808;20.336;2023-05-18T00:53:41;5.60;99.90
12384;DHT22;6256;63.808;20.336;2023-05-18T00:56:10;5.60;99.90
12384;DHT22;6256;63.808;20.336;2023-05-18T00:58:40;5.60;99.90
12384;DHT22;6256;63.808;20.336;2023-05-18T01:01:07;5.70;99.90
12384;DHT22;6256;63.808;20.336;2023-05-18T01:03:36;5.70;99.90
12384;DHT22;6256;63.808;20.336;2023-05-18T01:06:06;5.70;99.90
12384;DHT22;6256;63.808;20.336;2023-05-18T01:08:34;5.60;99.90
12384;DHT22;6256;63.808;20.336;2023-05-18T01:11:14;5.70;99.90
12384;DHT22;6256;63.808;20.336;2023-05-18T01:16:32;5.70;99.90
12384;DHT22;6256;63.808;20.336;2023-05-18T01:24:48;5.70;99.90
12384;DHT22;6256;63.808;20.336;2023-05-18T01:27:19;5.70;99.90
12384;DHT22;6256;63.808;20.336;2023-05-18T01:29:49;5.70;99.90
12384;DHT22;6256;63.808;20.336;2023-05-18T01:32:20;5.70;99.90
12384;DHT22;6256;63.808;20.336;2023-05-18T01:34:46;5.70;99.90
12384;DHT22;6256;63.808;20.336;2023-05-18T01:37:12;5.70;99.90
12384;DHT22;6256;63.808;20.336;2023-05-18T01:39:38;5.70;99.90
12384;DHT22;6256;63.808;20.336;2023-05-18T01:42:12;5.70;99.90
12384;DHT22;6256;63.808;20.336;2023-05-18T01:44:44;5.60;99.90
12384;DHT22;6256;63.808;20.336;2023-05-18T01:47:16;5.60;99.90
12384;DHT22;6256;63.808;20.336;2023-05-18T01:52:37;5.70;99.90
12384;DHT22;6256;63.808;20.336;2023-05-18T01:55:05;5.70;99.90
12384;DHT22;6256;63.808;20.336;2023-05-18T01:57:32;5.70;99.90
12384;DHT22;6256;63.808;20.336;2023-05-18T01:59:59;5.70;99.90
12384;DHT22;6256;63.808;20.336;2023-05-18T02:02:26;5.70;99.90
12384;DHT22;6256;63.808;20.336;2023-05-18T02:04:52;5.60;99.90
12384;DHT22;6256;63.808;20.336;2023-05-18T02:07:18;5.60;99.90
12384;DHT22;6256;63.808;20.336;2023-05-18T02:09:44;5.60;99.90
12384;DHT22;6256;63.808;20.336;2023-05-18T02:12:10;5.70;99.90
12384;DHT22;6256;63.808;20.336;2023-05-18T02:14:36;5.70;99.90
12384;DHT22;6256;63.808;20.336;2023-05-18T02:17:02;5.70;99.90
12384;DHT22;6256;63.808;20.336;2023-05-18T02:19:27;5.60;99.90
12384;DHT22;6256;63.808;20.336;2023-05-18T02:21:55;5.60;99.90
12384;DHT22;6256;63.808;20.336;2023-05-18T02:24:22;5.70;99.90
12384;DHT22;6256;63.808;20.336;2023-05-18T02:26:49;5.60;99.90
12384;DHT22;6256;63.808;20.336;2023-05-18T02:29:15;5.60;99.90
12384;DHT22;6256;63.808;20.336;2023-05-18T02:31:41;5.70;99.90
12384;DHT22;6256;63.808;20.336;2023-05-18T02:34:08;5.70;99.90
12384;DHT22;6256;63.808;20.336;2023-05-18T02:36:34;5.70;99.90
12384;DHT22;6256;63.808;20.336;2023-05-18T02:39:07;5.80;99.90
12384;DHT22;6256;63.808;20.336;2023-05-18T02:41:34;5.80;99.90
12384;DHT22;6256;63.808;20.336;2023-05-18T02:44:00;5.80;99.90
12384;DHT22;6256;63.808;20.336;2023-05-18T02:46:30;5.80;99.90
12384;DHT22;6256;63.808;20.336;2023-05-18T02:48:55;5.80;99.90
12384;DHT22;6256;63.808;20.336;2023-05-18T02:51:21;5.90;99.90
12384;DHT22;6256;63.808;20.336;2023-05-18T02:53:48;5.80;99.90
12384;DHT22;6256;63.808;20.336;2023-05-18T02:56:14;5.80;99.90
12384;DHT22;6256;63.808;20.336;2023-05-18T02:58:42;5.90;99.90
12384;DHT22;6256;63.808;20.336;2023-05-18T03:01:08;5.90;99.90
12384;DHT22;6256;63.808;20.336;2023-05-18T03:03:37;6.00;99.90
12384;DHT22;6256;63.808;20.336;2023-05-18T03:06:04;5.90;99.90
12384;DHT22;6256;63.808;20.336;2023-05-18T03:08:30;5.90;99.90
12384;DHT22;6256;63.808;20.336;2023-05-18T03:10:57;6.00;99.90
12384;DHT22;6256;63.808;20.336;2023-05-18T03:13:23;6.00;99.90
12384;DHT22;6256;63.808;20.336;2023-05-18T03:15:48;6.00;99.90
12384;DHT22;6256;63.808;20.336;2023-05-18T03:18:15;6.10;99.90
12384;DHT22;6256;63.808;20.336;2023-05-18T03:20:41;6.00;99.90
12384;DHT22;6256;63.808;20.336;2023-05-18T03:23:08;6.20;99.90
12384;DHT22;6256;63.808;20.336;2023-05-18T03:25:34;6.20;99.90
12384;DHT22;6256;63.808;20.336;2023-05-18T03:28:02;6.40;99.90
12384;DHT22;6256;63.808;20.336;2023-05-18T03:30:31;6.30;99.90
12384;DHT22;6256;63.808;20.336;2023-05-18T03:32:57;6.40;99.90
12384;DHT22;6256;63.808;20.336;2023-05-18T03:35:23;6.30;99.90
12384;DHT22;6256;63.808;20.336;2023-05-18T03:37:49;6.40;99.90
12384;DHT22;6256;63.808;20.336;2023-05-18T03:40:15;6.40;99.90
12384;DHT22;6256;63.808;20.336;2023-05-18T03:42:41;6.30;99.90
12384;DHT22;6256;63.808;20.336;2023-05-18T03:45:08;6.30;99.90
12384;DHT22;6256;63.808;20.336;2023-05-18T03:47:35;6.40;99.90
12384;DHT22;6256;63.808;20.336;2023-05-18T03:50:02;6.30;99.90
12384;DHT22;6256;63.808;20.336;2023-05-18T03:52:28;6.40;99.90
12384;DHT22;6256;63.808;20.336;2023-05-18T03:54:55;6.40;99.90
12384;DHT22;6256;63.808;20.336;2023-05-18T03:57:21;6.40;99.90
12384;DHT22;6256;63.808;20.336;2023-05-18T03:59:46;6.30;99.90
12384;DHT22;6256;63.808;20.336;2023-05-18T04:02:13;6.30;99.90
12384;DHT22;6256;63.808;20.336;2023-05-18T04:04:41;6.30;99.90
12384;DHT22;6256;63.808;20.336;2023-05-18T04:07:10;6.30;99.90
12384;DHT22;6256;63.808;20.336;2023-05-18T04:09:37;6.30;99.90
12384;DHT22;6256;63.808;20.336;2023-05-18T04:12:03;6.40;99.90
12384;DHT22;6256;63.808;20.336;2023-05-18T04:14:28;6.40;99.90
12384;DHT22;6256;63.808;20.336;2023-05-18T04:16:57;6.40;99.90
12384;DHT22;6256;63.808;20.336;2023-05-18T04:19:30;6.30;99.90
12384;DHT22;6256;63.808;20.336;2023-05-18T04:21:55;6.40;99.90
12384;DHT22;6256;63.808;20.336;2023-05-18T04:24:21;6.40;99.90
12384;DHT22;6256;63.808;20.336;2023-05-18T04:26:47;6.50;99.90
12384;DHT22;6256;63.808;20.336;2023-05-18T04:29:13;6.50;99.90
12384;DHT22;6256;63.808;20.336;2023-05-18T04:31:39;6.60;99.90
12384;DHT22;6256;63.808;20.336;2023-05-18T04:34:07;6.70;99.90
12384;DHT22;6256;63.808;20.336;2023-05-18T04:36:33;6.70;99.90
12384;DHT22;6256;63.808;20.336;2023-05-18T04:39:00;6.60;99.90
12384;DHT22;6256;63.808;20.336;2023-05-18T04:41:28;6.60;99.90
12384;DHT22;6256;63.808;20.336;2023-05-18T04:43:54;6.60;99.90
12384;DHT22;6256;63.808;20.336;2023-05-18T04:46:20;6.60;99.90
12384;DHT22;6256;63.808;20.336;2023-05-18T04:48:48;6.80;99.90
12384;DHT22;6256;63.808;20.336;2023-05-18T04:51:17;6.80;99.90
12384;DHT22;6256;63.808;20.336;2023-05-18T04:53:46;6.80;99.90
12384;DHT22;6256;63.808;20.336;2023-05-18T04:56:15;6.90;99.90
12384;DHT22;6256;63.808;20.336;2023-05-18T04:58:41;7.00;99.90
12384;DHT22;6256;63.808;20.336;2023-05-18T05:01:10;7.00;99.90
12384;DHT22;6256;63.808;20.336;2023-05-18T05:03:36;7.00;99.90
12384;DHT22;6256;63.808;20.336;2023-05-18T05:06:02;7.10;99.90
12384;DHT22;6256;63.808;20.336;2023-05-18T05:08:28;7.20;99.90
12384;DHT22;6256;63.808;20.336;2023-05-18T05:10:53;7.30;99.90
12384;DHT22;6256;63.808;20.336;2023-05-18T05:13:19;7.30;99.90
12384;DHT22;6256;63.808;20.336;2023-05-18T05:15:45;7.40;99.90
12384;DHT22;6256;63.808;20.336;2023-05-18T05:18:11;7.40;99.90
12384;DHT22;6256;63.808;20.336;2023-05-18T05:20:36;7.40;99.90
12384;DHT22;6256;63.808;20.336;2023-05-18T05:23:02;7.40;99.90
12384;DHT22;6256;63.808;20.336;2023-05-18T05:25:27;7.20;99.90
12384;DHT22;6256;63.808;20.336;2023-05-18T05:27:53;7.20;99.90
12384;DHT22;6256;63.808;20.336;2023-05-18T05:30:19;7.20;99.90
12384;DHT22;6256;63.808;20.336;2023-05-18T05:32:45;7.40;99.90
12384;DHT22;6256;63.808;20.336;2023-05-18T05:35:10;7.50;99.90
12384;DHT22;6256;63.808;20.336;2023-05-18T05:37:36;7.60;99.90
12384;DHT22;6256;63.808;20.336;2023-05-18T05:40:02;7.80;99.90
12384;DHT22;6256;63.808;20.336;2023-05-18T05:42:30;7.90;99.90
12384;DHT22;6256;63.808;20.336;2023-05-18T05:44:56;8.00;99.90
12384;DHT22;6256;63.808;20.336;2023-05-18T05:47:22;8.10;99.90
12384;DHT22;6256;63.808;20.336;2023-05-18T05:49:48;8.30;99.90
12384;DHT22;6256;63.808;20.336;2023-05-18T05:52:14;8.20;99.90
12384;DHT22;6256;63.808;20.336;2023-05-18T05:54:40;8.20;99.90
12384;DHT22;6256;63.808;20.336;2023-05-18T05:57:06;8.30;99.90
12384;DHT22;6256;63.808;20.336;2023-05-18T05:59:31;8.30;99.90
12384;DHT22;6256;63.808;20.336;2023-05-18T06:01:57;8.40;99.90
12384;DHT22;6256;63.808;20.336;2023-05-18T06:04:23;8.30;99.90
12384;DHT22;6256;63.808;20.336;2023-05-18T06:06:48;8.10;99.90
12384;DHT22;6256;63.808;20.336;2023-05-18T06:09:14;8.20;99.90
12384;DHT22;6256;63.808;20.336;2023-05-18T06:11:40;8.20;99.90
12384;DHT22;6256;63.808;20.336;2023-05-18T06:14:06;8.30;99.90
12384;DHT22;6256;63.808;20.336;2023-05-18T06:16:32;8.40;99.90
12384;DHT22;6256;63.808;20.336;2023-05-18T06:18:57;8.60;99.90
12384;DHT22;6256;63.808;20.336;2023-05-18T06:21:23;8.60;99.90
12384;DHT22;6256;63.808;20.336;2023-05-18T06:23:49;8.50;99.90
12384;DHT22;6256;63.808;20.336;2023-05-18T06:26:15;8.50;99.90
12384;DHT22;6256;63.808;20.336;2023-05-18T06:28:41;8.40;99.90
12384;DHT22;6256;63.808;20.336;2023-05-18T06:31:07;8.40;99.90
12384;DHT22;6256;63.808;20.336;2023-05-18T06:33:33;8.40;99.90
12384;DHT22;6256;63.808;20.336;2023-05-18T06:35:59;8.60;99.90
12384;DHT22;6256;63.808;20.336;2023-05-18T06:38:24;8.50;99.90
12384;DHT22;6256;63.808;20.336;2023-05-18T06:40:50;8.70;99.90
12384;DHT22;6256;63.808;20.336;2023-05-18T06:43:16;8.90;99.90
12384;DHT22;6256;63.808;20.336;2023-05-18T06:45:41;8.70;99.90
12384;DHT22;6256;63.808;20.336;2023-05-18T06:48:07;8.60;99.90
12384;DHT22;6256;63.808;20.336;2023-05-18T06:50:33;8.80;99.90
12384;DHT22;6256;63.808;20.336;2023-05-18T06:52:58;8.80;99.90
12384;DHT22;6256;63.808;20.336;2023-05-18T06:55:24;8.80;99.90
12384;DHT22;6256;63.808;20.336;2023-05-18T06:57:50;8.80;99.90
12384;DHT22;6256;63.808;20.336;2023-05-18T07:00:17;9.00;99.90
12384;DHT22;6256;63.808;20.336;2023-05-18T07:02:43;9.00;99.90
12384;DHT22;6256;63.808;20.336;2023-05-18T07:05:10;9.20;99.90
12384;DHT22;6256;63.808;20.336;2023-05-18T07:07:35;9.20;99.90
12384;DHT22;6256;63.808;20.336;2023-05-18T07:10:02;9.10;99.90
12384;DHT22;6256;63.808;20.336;2023-05-18T07:12:29;9.30;99.90
12384;DHT22;6256;63.808;20.336;2023-05-18T07:14:54;9.50;99.90
12384;DHT22;6256;63.808;20.336;2023-05-18T07:17:20;9.60;99.90
12384;DHT22;6256;63.808;20.336;2023-05-18T07:19:47;9.50;99.90
12384;DHT22;6256;63.808;20.336;2023-05-18T07:22:12;9.60;99.90
12384;DHT22;6256;63.808;20.336;2023-05-18T07:24:38;9.40;99.90
12384;DHT22;6256;63.808;20.336;2023-05-18T07:27:04;9.70;99.90
12384;DHT22;6256;63.808;20.336;2023-05-18T07:29:30;9.70;99.90
12384;DHT22;6256;63.808;20.336;2023-05-18T07:31:56;9.60;99.90
12384;DHT22;6256;63.808;20.336;2023-05-18T07:34:22;9.80;99.90
12384;DHT22;6256;63.808;20.336;2023-05-18T07:36:48;10.00;99.90
12384;DHT22;6256;63.808;20.336;2023-05-18T07:39:14;9.90;99.90
12384;DHT22;6256;63.808;20.336;2023-05-18T07:41:45;9.60;99.90
12384;DHT22;6256;63.808;20.336;2023-05-18T07:44:12;9.60;99.90
12384;DHT22;6256;63.808;20.336;2023-05-18T07:46:39;9.60;99.90
12384;DHT22;6256;63.808;20.336;2023-05-18T07:49:05;10.00;99.90
12384;DHT22;6256;63.808;20.336;2023-05-18T07:51:31;10.00;99.90
12384;DHT22;6256;63.808;20.336;2023-05-18T07:53:56;10.40;99.90
12384;DHT22;6256;63.808;20.336;2023-05-18T07:56:22;10.10;99.90
12384;DHT22;6256;63.808;20.336;2023-05-18T07:58:48;10.20;99.90
12384;DHT22;6256;63.808;20.336;2023-05-18T08:01:14;9.90;99.90
12384;DHT22;6256;63.808;20.336;2023-05-18T08:03:40;10.20;99.90
12384;DHT22;6256;63.808;20.336;2023-05-18T08:06:06;10.50;99.90
12384;DHT22;6256;63.808;20.336;2023-05-18T08:08:32;10.60;99.90
12384;DHT22;6256;63.808;20.336;2023-05-18T08:11:00;10.50;99.90
12384;DHT22;6256;63.808;20.336;2023-05-18T08:13:26;10.60;99.90
12384;DHT22;6256;63.808;20.336;2023-05-18T08:15:51;10.60;99.90
12384;DHT22;6256;63.808;20.336;2023-05-18T08:18:17;10.50;99.90
12384;DHT22;6256;63.808;20.336;2023-05-18T08:20:43;10.90;99.90
12384;DHT22;6256;63.808;20.336;2023-05-18T08:23:08;10.70;99.90
12384;DHT22;6256;63.808;20.336;2023-05-18T08:25:34;10.60;99.90
12384;DHT22;6256;63.808;20.336;2023-05-18T08:28:00;10.70;99.90
12384;DHT22;6256;63.808;20.336;2023-05-18T08:30:25;10.80;99.90
12384;DHT22;6256;63.808;20.336;2023-05-18T08:32:51;11.20;99.90
12384;DHT22;6256;63.808;20.336;2023-05-18T08:35:17;11.10;99.90
12384;DHT22;6256;63.808;20.336;2023-05-18T08:37:42;11.20;99.90
12384;DHT22;6256;63.808;20.336;2023-05-18T08:40:09;11.00;99.70
12384;DHT22;6256;63.808;20.336;2023-05-18T08:42:47;10.90;99.00
12384;DHT22;6256;63.808;20.336;2023-05-18T08:45:20;10.80;99.70
12384;DHT22;6256;63.808;20.336;2023-05-18T08:47:50;10.90;99.90
12384;DHT22;6256;63.808;20.336;2023-05-18T08:50:19;10.90;98.10
12384;DHT22;6256;63.808;20.336;2023-05-18T08:52:47;10.90;98.60
12384;DHT22;6256;63.808;20.336;2023-05-18T08:55:13;11.00;98.20
12384;DHT22;6256;63.808;20.336;2023-05-18T08:57:42;11.00;98.10
12384;DHT22;6256;63.808;20.336;2023-05-18T09:00:11;11.10;98.10
12384;DHT22;6256;63.808;20.336;2023-05-18T09:02:37;10.80;96.90
12384;DHT22;6256;63.808;20.336;2023-05-18T09:05:05;11.20;99.00
12384;DHT22;6256;63.808;20.336;2023-05-18T09:07:31;11.60;97.10
12384;DHT22;6256;63.808;20.336;2023-05-18T09:09:57;12.10;98.10
12384;DHT22;6256;63.808;20.336;2023-05-18T09:12:25;12.70;96.60
12384;DHT22;6256;63.808;20.336;2023-05-18T09:14:53;13.00;97.10
12384;DHT22;6256;63.808;20.336;2023-05-18T09:17:19;12.90;98.60
12384;DHT22;6256;63.808;20.336;2023-05-18T09:19:47;12.80;99.90
12384;DHT22;6256;63.808;20.336;2023-05-18T09:22:13;12.10;95.50
12384;DHT22;6256;63.808;20.336;2023-05-18T09:24:40;11.40;93.70
12384;DHT22;6256;63.808;20.336;2023-05-18T09:27:06;11.50;95.70
12384;DHT22;6256;63.808;20.336;2023-05-18T09:29:32;11.60;95.40
12384;DHT22;6256;63.808;20.336;2023-05-18T09:32:01;12.30;95.60
12384;DHT22;6256;63.808;20.336;2023-05-18T09:34:38;12.90;94.90
12384;DHT22;6256;63.808;20.336;2023-05-18T09:37:05;13.40;94.80
12384;DHT22;6256;63.808;20.336;2023-05-18T09:39:30;13.50;92.20
12384;DHT22;6256;63.808;20.336;2023-05-18T09:41:56;12.80;91.90
12384;DHT22;6256;63.808;20.336;2023-05-18T09:44:33;12.20;92.40
12384;DHT22;6256;63.808;20.336;2023-05-18T09:46:59;11.90;93.20
12384;DHT22;6256;63.808;20.336;2023-05-18T09:49:25;12.30;93.70
12384;DHT22;6256;63.808;20.336;2023-05-18T09:51:53;12.60;94.50
12384;DHT22;6256;63.808;20.336;2023-05-18T09:54:19;12.80;93.10
12384;DHT22;6256;63.808;20.336;2023-05-18T09:56:44;12.80;91.70
12384;DHT22;6256;63.808;20.336;2023-05-18T09:59:13;12.50;92.00
12384;DHT22;6256;63.808;20.336;2023-05-18T10:01:58;12.50;93.20
12384;DHT22;6256;63.808;20.336;2023-05-18T10:04:48;12.70;92.60
12384;DHT22;6256;63.808;20.336;2023-05-18T10:07:15;12.80;91.30
12384;DHT22;6256;63.808;20.336;2023-05-18T10:09:43;13.10;92.90
12384;DHT22;6256;63.808;20.336;2023-05-18T10:12:13;13.30;92.80
12384;DHT22;6256;63.808;20.336;2023-05-18T10:14:44;13.60;92.30
12384;DHT22;6256;63.808;20.336;2023-05-18T10:17:14;13.20;89.50
12384;DHT22;6256;63.808;20.336;2023-05-18T10:19:41;12.90;90.30
12384;DHT22;6256;63.808;20.336;2023-05-18T10:22:07;12.70;91.40
12384;DHT22;6256;63.808;20.336;2023-05-18T10:24:38;12.60;91.50
12384;DHT22;6256;63.808;20.336;2023-05-18T10:27:08;12.70;90.40
12384;DHT22;6256;63.808;20.336;2023-05-18T10:29:37;12.90;90.40
12384;DHT22;6256;63.808;20.336;2023-05-18T10:32:04;12.60;90.10
12384;DHT22;6256;63.808;20.336;2023-05-18T10:34:34;13.00;91.40
12384;DHT22;6256;63.808;20.336;2023-05-18T10:37:01;13.40;91.30
12384;DHT22;6256;63.808;20.336;2023-05-18T10:39:33;13.50;92.00
12384;DHT22;6256;63.808;20.336;2023-05-18T10:42:01;13.60;86.30
12384;DHT22;6256;63.808;20.336;2023-05-18T10:44:28;14.10;87.90
12384;DHT22;6256;63.808;20.336;2023-05-18T10:46:54;13.70;92.10
12384;DHT22;6256;63.808;20.336;2023-05-18T10:49:25;13.40;86.90
12384;DHT22;6256;63.808;20.336;2023-05-18T10:51:55;13.40;87.20
12384;DHT22;6256;63.808;20.336;2023-05-18T10:54:25;14.20;85.10
12384;DHT22;6256;63.808;20.336;2023-05-18T10:56:51;14.80;85.90
12384;DHT22;6256;63.808;20.336;2023-05-18T10:59:19;14.70;82.30
12384;DHT22;6256;63.808;20.336;2023-05-18T11:01:50;14.20;81.40
12384;DHT22;6256;63.808;20.336;2023-05-18T11:04:24;13.60;81.30
12384;DHT22;6256;63.808;20.336;2023-05-18T11:07:00;13.40;83.40
12384;DHT22;6256;63.808;20.336;2023-05-18T11:09:28;13.90;85.30
12384;DHT22;6256;63.808;20.336;2023-05-18T11:11:58;13.40;81.90
12384;DHT22;6256;63.808;20.336;2023-05-18T11:14:28;13.20;81.20
12384;DHT22;6256;63.808;20.336;2023-05-18T11:17:14;13.30;81.60
12384;DHT22;6256;63.808;20.336;2023-05-18T11:19:42;13.20;82.10
12384;DHT22;6256;63.808;20.336;2023-05-18T11:22:39;13.20;82.00
12384;DHT22;6256;63.808;20.336;2023-05-18T11:25:09;13.40;82.30
12384;DHT22;6256;63.808;20.336;2023-05-18T11:27:45;13.90;81.70
12384;DHT22;6256;63.808;20.336;2023-05-18T11:30:45;13.80;84.10
12384;DHT22;6256;63.808;20.336;2023-05-18T11:33:15;14.40;82.00
12384;DHT22;6256;63.808;20.336;2023-05-18T11:38:52;14.20;80.10
12384;DHT22;6256;63.808;20.336;2023-05-18T11:41:38;14.90;81.30
12384;DHT22;6256;63.808;20.336;2023-05-18T11:47:04;15.10;77.80
12384;DHT22;6256;63.808;20.336;2023-05-18T11:49:40;15.90;81.00
12384;DHT22;6256;63.808;20.336;2023-05-18T11:54:50;15.20;75.90
12384;DHT22;6256;63.808;20.336;2023-05-18T12:00:00;15.50;76.80
12384;DHT22;6256;63.808;20.336;2023-05-18T12:02:30;16.80;75.00
12384;DHT22;6256;63.808;20.336;2023-05-18T12:04:57;17.80;75.00
12384;DHT22;6256;63.808;20.336;2023-05-18T12:07:28;19.20;75.90
12384;DHT22;6256;63.808;20.336;2023-05-18T12:09:58;20.10;70.80
12384;DHT22;6256;63.808;20.336;2023-05-18T12:12:26;19.80;68.70
12384;DHT22;6256;63.808;20.336;2023-05-18T12:14:56;19.60;65.20
12384;DHT22;6256;63.808;20.336;2023-05-18T12:17:23;19.80;66.00
12384;DHT22;6256;63.808;20.336;2023-05-18T12:19:49;19.60;65.80
12384;DHT22;6256;63.808;20.336;2023-05-18T12:22:15;20.10;64.30
12384;DHT22;6256;63.808;20.336;2023-05-18T12:24:42;20.90;64.60
12384;DHT22;6256;63.808;20.336;2023-05-18T12:27:09;21.60;63.80
12384;DHT22;6256;63.808;20.336;2023-05-18T12:29:40;22.00;83.30
12384;DHT22;6256;63.808;20.336;2023-05-18T12:32:10;22.70;84.30
12384;DHT22;6256;63.808;20.336;2023-05-18T12:34:37;22.30;73.30
12384;DHT22;6256;63.808;20.336;2023-05-18T12:37:06;22.00;72.20
12384;DHT22;6256;63.808;20.336;2023-05-18T12:39:32;20.90;72.80
12384;DHT22;6256;63.808;20.336;2023-05-18T12:42:27;19.40;76.20
12384;DHT22;6256;63.808;20.336;2023-05-18T12:44:53;19.00;68.80
12384;DHT22;6256;63.808;20.336;2023-05-18T12:47:19;18.50;65.80
12384;DHT22;6256;63.808;20.336;2023-05-18T12:49:47;17.80;61.70
12384;DHT22;6256;63.808;20.336;2023-05-18T12:52:14;18.90;62.90
12384;DHT22;6256;63.808;20.336;2023-05-18T12:55:07;20.40;62.70
12384;DHT22;6256;63.808;20.336;2023-05-18T12:57:36;21.30;59.60
12384;DHT22;6256;63.808;20.336;2023-05-18T13:00:06;22.20;57.50
12384;DHT22;6256;63.808;20.336;2023-05-18T13:02:36;20.40;54.80
12384;DHT22;6256;63.808;20.336;2023-05-18T13:05:10;20.90;57.90
12384;DHT22;6256;63.808;20.336;2023-05-18T13:07:41;20.60;55.40
12384;DHT22;6256;63.808;20.336;2023-05-18T13:10:10;22.00;57.50
12384;DHT22;6256;63.808;20.336;2023-05-18T13:12:47;22.50;55.40
12384;DHT22;6256;63.808;20.336;2023-05-18T13:15:15;20.60;54.50
12384;DHT22;6256;63.808;20.336;2023-05-18T13:18:08;20.50;53.80
12384;DHT22;6256;63.808;20.336;2023-05-18T13:20:44;20.80;54.30
12384;DHT22;6256;63.808;20.336;2023-05-18T13:23:14;21.60;55.20
12384;DHT22;6256;63.808;20.336;2023-05-18T13:25:41;20.80;52.40
12384;DHT22;6256;63.808;20.336;2023-05-18T13:28:08;21.00;54.30
12384;DHT22;6256;63.808;20.336;2023-05-18T13:30:37;21.30;51.90
12384;DHT22;6256;63.808;20.336;2023-05-18T13:33:04;22.30;50.80
12384;DHT22;6256;63.808;20.336;2023-05-18T13:35:30;23.20;53.70
12384;DHT22;6256;63.808;20.336;2023-05-18T13:37:55;22.90;51.80
12384;DHT22;6256;63.808;20.336;2023-05-18T13:40:21;24.10;50.70
12384;DHT22;6256;63.808;20.336;2023-05-18T13:42:49;22.90;52.10
12384;DHT22;6256;63.808;20.336;2023-05-18T13:45:15;23.50;50.90
12384;DHT22;6256;63.808;20.336;2023-05-18T13:47:41;22.70;52.10
12384;DHT22;6256;63.808;20.336;2023-05-18T13:50:08;23.20;51.50
12384;DHT22;6256;63.808;20.336;2023-05-18T13:52:37;21.80;49.40
12384;DHT22;6256;63.808;20.336;2023-05-18T13:55:05;21.60;50.20
12384;DHT22;6256;63.808;20.336;2023-05-18T13:57:31;23.20;53.30
12384;DHT22;6256;63.808;20.336;2023-05-18T13:59:57;22.40;49.30
12384;DHT22;6256;63.808;20.336;2023-05-18T14:02:26;22.20;49.90
12384;DHT22;6256;63.808;20.336;2023-05-18T14:04:55;22.00;48.50
12384;DHT22;6256;63.808;20.336;2023-05-18T14:07:21;22.60;47.70
12384;DHT22;6256;63.808;20.336;2023-05-18T14:09:48;24.10;49.50
12384;DHT22;6256;63.808;20.336;2023-05-18T14:12:14;24.70;47.70
12384;DHT22;6256;63.808;20.336;2023-05-18T14:14:40;24.20;48.80
12384;DHT22;6256;63.808;20.336;2023-05-18T14:17:08;25.00;50.30
12384;DHT22;6256;63.808;20.336;2023-05-18T14:19:34;25.70;51.20
12384;DHT22;6256;63.808;20.336;2023-05-18T14:22:01;25.30;50.80
12384;DHT22;6256;63.808;20.336;2023-05-18T14:24:26;25.20;50.50
12384;DHT22;6256;63.808;20.336;2023-05-18T14:26:52;25.90;52.40
12384;DHT22;6256;63.808;20.336;2023-05-18T14:29:18;26.30;51.90
12384;DHT22;6256;63.808;20.336;2023-05-18T14:31:45;25.30;51.60
12384;DHT22;6256;63.808;20.336;2023-05-18T14:34:11;25.50;51.80
12384;DHT22;6256;63.808;20.336;2023-05-18T14:36:36;25.40;53.20
12384;DHT22;6256;63.808;20.336;2023-05-18T14:39:02;25.60;50.80
12384;DHT22;6256;63.808;20.336;2023-05-18T14:41:29;26.00;50.90
12384;DHT22;6256;63.808;20.336;2023-05-18T14:43:55;26.10;50.60
12384;DHT22;6256;63.808;20.336;2023-05-18T14:46:21;26.20;52.40
12384;DHT22;6256;63.808;20.336;2023-05-18T14:48:46;25.70;50.20
12384;DHT22;6256;63.808;20.336;2023-05-18T14:51:12;25.00;48.80
12384;DHT22;6256;63.808;20.336;2023-05-18T14:53:38;24.90;49.50
12384;DHT22;6256;63.808;20.336;2023-05-18T14:56:04;24.90;50.30
12384;DHT22;6256;63.808;20.336;2023-05-18T14:58:33;24.30;50.40
12384;DHT22;6256;63.808;20.336;2023-05-18T15:00:59;24.20;51.50
12384;DHT22;6256;63.808;20.336;2023-05-18T15:03:24;24.10;51.60
12384;DHT22;6256;63.808;20.336;2023-05-18T15:05:50;24.20;52.10
12384;DHT22;6256;63.808;20.336;2023-05-18T15:08:16;24.70;52.20
12384;DHT22;6256;63.808;20.336;2023-05-18T15:10:42;24.00;51.70
12384;DHT22;6256;63.808;20.336;2023-05-18T15:13:07;24.80;51.90
12384;DHT22;6256;63.808;20.336;2023-05-18T15:15:33;23.70;50.60
12384;DHT22;6256;63.808;20.336;2023-05-18T15:17:59;24.10;51.30
12384;DHT22;6256;63.808;20.336;2023-05-18T15:20:25;24.70;52.10
12384;DHT22;6256;63.808;20.336;2023-05-18T15:22:51;24.80;51.20
12384;DHT22;6256;63.808;20.336;2023-05-18T15:25:17;24.50;51.90
12384;DHT22;6256;63.808;20.336;2023-05-18T15:27:43;24.40;51.80
12384;DHT22;6256;63.808;20.336;2023-05-18T15:30:09;24.90;52.50
12384;DHT22;6256;63.808;20.336;2023-05-18T15:32:38;25.30;51.50
12384;DHT22;6256;63.808;20.336;2023-05-18T15:35:05;25.30;52.40
12384;DHT22;6256;63.808;20.336;2023-05-18T15:37:31;25.20;50.90
12384;DHT22;6256;63.808;20.336;2023-05-18T15:39:57;24.90;51.60
12384;DHT22;6256;63.808;20.336;2023-05-18T15:42:23;25.10;51.60
12384;DHT22;6256;63.808;20.336;2023-05-18T15:44:49;25.80;51.50
12384;DHT22;6256;63.808;20.336;2023-05-18T15:47:14;25.80;51.30
12384;DHT22;6256;63.808;20.336;2023-05-18T15:49:40;26.70;50.30
12384;DHT22;6256;63.808;20.336;2023-05-18T15:52:06;26.30;49.60
12384;DHT22;6256;63.808;20.336;2023-05-18T15:54:32;25.60;49.80
12384;DHT22;6256;63.808;20.336;2023-05-18T15:56:57;25.20;51.10
12384;DHT22;6256;63.808;20.336;2023-05-18T15:59:23;24.90;50.50
12384;DHT22;6256;63.808;20.336;2023-05-18T16:01:49;23.60;52.00
12384;DHT22;6256;63.808;20.336;2023-05-18T16:04:14;23.10;53.70